sensor_id;sensor_type;location;lat;lon;timestamp;P1;P2;P0
69736;PMS5003;60097;55.004;73.344;2022-07-23T00:00:59;8.15;3.50;
69736;PMS5003;60097;55.004;73.344;2022-07-23T00:03:37;7.40;3.50;
69736;PMS5003;60097;55.004;73.344;2022-07-23T00:06:12;7.65;3.95;
69736;PMS5003;60097;55.004;73.344;2022-07-23T00:08:42;7.70;4.00;
69736;PMS5003;60097;55.004;73.344;2022-07-23T00:11:08;12.25;4.45;
69736;PMS5003;60097;55.004;73.344;2022-07-23T00:13:38;8.65;3.70;
69736;PMS5003;60097;55.004;73.344;2022-07-23T00:16:07;7.05;3.78;
69736;PMS5003;60097;55.004;73.344;2022-07-23T00:18:36;4.80;3.70;
69736;PMS5003;60097;55.004;73.344;2022-07-23T00:21:03;11.82;3.80;
69736;PMS5003;60097;55.004;73.344;2022-07-23T00:23:30;11.25;3.83;
69736;PMS5003;60097;55.004;73.344;2022-07-23T00:25:56;9.27;3.40;
69736;PMS5003;60097;55.004;73.344;2022-07-23T00:28:23;7.57;3.63;
69736;PMS5003;60097;55.004;73.344;2022-07-23T00:30:57;4.70;3.80;
69736;PMS5003;60097;55.004;73.344;2022-07-23T00:33:23;6.20;3.67;
69736;PMS5003;60097;55.004;73.344;2022-07-23T00:35:50;13.00;4.28;
69736;PMS5003;60097;55.004;73.344;2022-07-23T00:38:16;14.07;4.07;
69736;PMS5003;60097;55.004;73.344;2022-07-23T00:40:43;9.77;3.80;
69736;PMS5003;60097;55.004;73.344;2022-07-23T00:43:13;7.18;3.72;
69736;PMS5003;60097;55.004;73.344;2022-07-23T00:45:40;17.33;4.38;
69736;PMS5003;60097;55.004;73.344;2022-07-23T00:48:11;29.73;6.10;
69736;PMS5003;60097;55.004;73.344;2022-07-23T00:50:38;21.50;5.28;
69736;PMS5003;60097;55.004;73.344;2022-07-23T00:53:05;13.32;4.38;
69736;PMS5003;60097;55.004;73.344;2022-07-23T00:55:31;7.57;4.53;
69736;PMS5003;60097;55.004;73.344;2022-07-23T00:58:29;11.68;4.40;
69736;PMS5003;60097;55.004;73.344;2022-07-23T01:00:56;9.00;4.07;
69736;PMS5003;60097;55.004;73.344;2022-07-23T01:03:32;8.63;4.07;
69736;PMS5003;60097;55.004;73.344;2022-07-23T01:05:59;7.15;4.05;
69736;PMS5003;60097;55.004;73.344;2022-07-23T01:08:26;7.35;3.75;
69736;PMS5003;60097;55.004;73.344;2022-07-23T01:11:06;7.00;4.20;
69736;PMS5003;60097;55.004;73.344;2022-07-23T01:13:33;9.20;4.35;
69736;PMS5003;60097;55.004;73.344;2022-07-23T01:16:10;9.38;4.10;
69736;PMS5003;60097;55.004;73.344;2022-07-23T01:18:36;13.80;3.90;
69736;PMS5003;60097;55.004;73.344;2022-07-23T01:21:03;11.13;4.35;
69736;PMS5003;60097;55.004;73.344;2022-07-23T01:23:29;8.70;4.28;
69736;PMS5003;60097;55.004;73.344;2022-07-23T01:28:56;8.63;4.07;
69736;PMS5003;60097;55.004;73.344;2022-07-23T01:31:32;13.15;4.35;
69736;PMS5003;60097;55.004;73.344;2022-07-23T01:33:59;7.45;4.30;
69736;PMS5003;60097;55.004;73.344;2022-07-23T01:36:25;9.20;4.50;
69736;PMS5003;60097;55.004;73.344;2022-07-23T01:38:53;10.38;4.53;
69736;PMS5003;60097;55.004;73.344;2022-07-23T01:42:03;8.30;4.32;
69736;PMS5003;60097;55.004;73.344;2022-07-23T01:44:41;5.83;4.90;
69736;PMS5003;60097;55.004;73.344;2022-07-23T01:47:13;9.38;5.30;
69736;PMS5003;60097;55.004;73.344;2022-07-23T01:49:41;5.78;4.65;
69736;PMS5003;60097;55.004;73.344;2022-07-23T01:52:26;8.07;4.72;
69736;PMS5003;60097;55.004;73.344;2022-07-23T01:54:59;11.40;6.03;
69736;PMS5003;60097;55.004;73.344;2022-07-23T01:57:32;6.32;4.13;
69736;PMS5003;60097;55.004;73.344;2022-07-23T01:59:58;5.65;4.05;
69736;PMS5003;60097;55.004;73.344;2022-07-23T02:02:25;8.35;4.30;
69736;PMS5003;60097;55.004;73.344;2022-07-23T02:04:54;11.73;4.45;
69736;PMS5003;60097;55.004;73.344;2022-07-23T02:07:25;11.15;4.20;
69736;PMS5003;60097;55.004;73.344;2022-07-23T02:09:51;6.68;4.22;
69736;PMS5003;60097;55.004;73.344;2022-07-23T02:12:18;6.45;4.85;
69736;PMS5003;60097;55.004;73.344;2022-07-23T02:14:44;8.55;4.90;
69736;PMS5003;60097;55.004;73.344;2022-07-23T02:17:12;7.90;5.03;
69736;PMS5003;60097;55.004;73.344;2022-07-23T02:19:46;10.03;4.90;
69736;PMS5003;60097;55.004;73.344;2022-07-23T02:22:13;8.95;4.75;
69736;PMS5003;60097;55.004;73.344;2022-07-23T02:24:39;7.43;4.40;
69736;PMS5003;60097;55.004;73.344;2022-07-23T02:27:07;14.93;4.40;
69736;PMS5003;60097;55.004;73.344;2022-07-23T02:29:36;3.42;3.20;
69736;PMS5003;60097;55.004;73.344;2022-07-23T02:32:03;11.05;4.32;
69736;PMS5003;60097;55.004;73.344;2022-07-23T02:34:29;7.60;4.16;
69736;PMS5003;60097;55.004;73.344;2022-07-23T02:36:56;7.57;3.72;
69736;PMS5003;60097;55.004;73.344;2022-07-23T02:39:25;7.43;4.18;
69736;PMS5003;60097;55.004;73.344;2022-07-23T02:41:52;7.72;4.13;
69736;PMS5003;60097;55.004;73.344;2022-07-23T02:44:25;12.98;4.45;
69736;PMS5003;60097;55.004;73.344;2022-07-23T02:46:53;15.52;4.53;
69736;PMS5003;60097;55.004;73.344;2022-07-23T02:49:25;20.46;4.78;
69736;PMS5003;60097;55.004;73.344;2022-07-23T02:51:52;14.18;4.70;
69736;PMS5003;60097;55.004;73.344;2022-07-23T02:54:50;13.82;4.53;
69736;PMS5003;60097;55.004;73.344;2022-07-23T02:57:17;12.23;4.85;
69736;PMS5003;60097;55.004;73.344;2022-07-23T02:59:43;12.73;5.13;
69736;PMS5003;60097;55.004;73.344;2022-07-23T03:02:10;10.40;4.45;
69736;PMS5003;60097;55.004;73.344;2022-07-23T03:04:37;18.95;5.55;
69736;PMS5003;60097;55.004;73.344;2022-07-23T03:07:10;12.50;4.55;
69736;PMS5003;60097;55.004;73.344;2022-07-23T03:09:37;7.07;4.50;
69736;PMS5003;60097;55.004;73.344;2022-07-23T03:12:03;13.55;4.85;
69736;PMS5003;60097;55.004;73.344;2022-07-23T03:14:30;11.65;4.40;
69736;PMS5003;60097;55.004;73.344;2022-07-23T03:16:58;11.70;4.63;
69736;PMS5003;60097;55.004;73.344;2022-07-23T03:19:26;20.60;5.07;
69736;PMS5003;60097;55.004;73.344;2022-07-23T03:21:52;14.05;4.68;
69736;PMS5003;60097;55.004;73.344;2022-07-23T03:24:25;12.37;5.15;
69736;PMS5003;60097;55.004;73.344;2022-07-23T03:27:22;15.80;6.35;
69736;PMS5003;60097;55.004;73.344;2022-07-23T03:29:57;14.52;5.57;
69736;PMS5003;60097;55.004;73.344;2022-07-23T03:32:25;18.88;5.82;
69736;PMS5003;60097;55.004;73.344;2022-07-23T03:34:52;19.17;6.18;
69736;PMS5003;60097;55.004;73.344;2022-07-23T03:37:22;16.05;5.13;
69736;PMS5003;60097;55.004;73.344;2022-07-23T03:39:49;15.20;6.18;
69736;PMS5003;60097;55.004;73.344;2022-07-23T03:42:15;10.95;5.38;
69736;PMS5003;60097;55.004;73.344;2022-07-23T03:44:46;19.45;5.95;
69736;PMS5003;60097;55.004;73.344;2022-07-23T03:47:13;14.75;6.50;
69736;PMS5003;60097;55.004;73.344;2022-07-23T03:49:49;11.77;6.53;
69736;PMS5003;60097;55.004;73.344;2022-07-23T03:52:19;17.23;7.28;
69736;PMS5003;60097;55.004;73.344;2022-07-23T03:54:51;9.23;6.43;
69736;PMS5003;60097;55.004;73.344;2022-07-23T03:57:18;15.00;7.22;
69736;PMS5003;60097;55.004;73.344;2022-07-23T03:59:48;23.57;7.00;
69736;PMS5003;60097;55.004;73.344;2022-07-23T04:02:14;19.13;7.20;
69736;PMS5003;60097;55.004;73.344;2022-07-23T04:04:46;22.27;6.87;
69736;PMS5003;60097;55.004;73.344;2022-07-23T04:07:18;16.30;5.97;
69736;PMS5003;60097;55.004;73.344;2022-07-23T04:09:55;16.07;5.70;
69736;PMS5003;60097;55.004;73.344;2022-07-23T04:12:22;16.67;7.13;
69736;PMS5003;60097;55.004;73.344;2022-07-23T04:15:22;11.13;4.88;
69736;PMS5003;60097;55.004;73.344;2022-07-23T04:18:28;8.60;4.00;
69736;PMS5003;60097;55.004;73.344;2022-07-23T04:21:02;7.97;3.72;
69736;PMS5003;60097;55.004;73.344;2022-07-23T04:23:37;13.20;4.43;
69736;PMS5003;60097;55.004;73.344;2022-07-23T04:26:36;9.70;4.47;
69736;PMS5003;60097;55.004;73.344;2022-07-23T04:29:03;13.52;4.13;
69736;PMS5003;60097;55.004;73.344;2022-07-23T04:31:30;6.38;3.58;
69736;PMS5003;60097;55.004;73.344;2022-07-23T04:34:00;6.22;3.50;
69736;PMS5003;60097;55.004;73.344;2022-07-23T04:36:26;7.03;3.50;
69736;PMS5003;60097;55.004;73.344;2022-07-23T04:38:54;8.80;3.50;
69736;PMS5003;60097;55.004;73.344;2022-07-23T04:41:21;12.63;3.88;
69736;PMS5003;60097;55.004;73.344;2022-07-23T04:43:47;10.68;3.65;
69736;PMS5003;60097;55.004;73.344;2022-07-23T04:46:14;10.48;3.70;
69736;PMS5003;60097;55.004;73.344;2022-07-23T04:48:45;10.45;3.95;
69736;PMS5003;60097;55.004;73.344;2022-07-23T04:51:12;5.45;3.70;
69736;PMS5003;60097;55.004;73.344;2022-07-23T04:53:39;7.18;3.70;
69736;PMS5003;60097;55.004;73.344;2022-07-23T04:56:07;8.38;3.35;
69736;PMS5003;60097;55.004;73.344;2022-07-23T04:58:35;7.20;3.63;
69736;PMS5003;60097;55.004;73.344;2022-07-23T05:01:02;6.68;3.40;
69736;PMS5003;60097;55.004;73.344;2022-07-23T05:03:33;7.88;3.20;
69736;PMS5003;60097;55.004;73.344;2022-07-23T05:06:05;4.22;3.83;
69736;PMS5003;60097;55.004;73.344;2022-07-23T05:08:41;6.07;4.20;
69736;PMS5003;60097;55.004;73.344;2022-07-23T05:11:10;6.07;3.17;
69736;PMS5003;60097;55.004;73.344;2022-07-23T05:13:40;11.27;3.08;
69736;PMS5003;60097;55.004;73.344;2022-07-23T05:16:07;5.97;4.10;
69736;PMS5003;60097;55.004;73.344;2022-07-23T05:18:35;7.68;3.00;
69736;PMS5003;60097;55.004;73.344;2022-07-23T05:21:05;15.77;3.53;
69736;PMS5003;60097;55.004;73.344;2022-07-23T05:23:33;5.65;3.33;
69736;PMS5003;60097;55.004;73.344;2022-07-23T05:26:00;8.07;3.67;
69736;PMS5003;60097;55.004;73.344;2022-07-23T05:28:28;13.93;3.63;
69736;PMS5003;60097;55.004;73.344;2022-07-23T05:31:31;10.27;3.47;
69736;PMS5003;60097;55.004;73.344;2022-07-23T05:33:58;7.70;3.20;
69736;PMS5003;60097;55.004;73.344;2022-07-23T05:36:25;4.68;3.20;
69736;PMS5003;60097;55.004;73.344;2022-07-23T05:38:54;7.55;3.00;
69736;PMS5003;60097;55.004;73.344;2022-07-23T05:41:22;5.55;2.90;
69736;PMS5003;60097;55.004;73.344;2022-07-23T05:43:48;6.75;3.10;
69736;PMS5003;60097;55.004;73.344;2022-07-23T05:46:15;14.68;3.15;
69736;PMS5003;60097;55.004;73.344;2022-07-23T05:48:45;12.23;2.97;
69736;PMS5003;60097;55.004;73.344;2022-07-23T05:51:54;7.03;2.95;
69736;PMS5003;60097;55.004;73.344;2022-07-23T05:54:39;4.88;3.30;
69736;PMS5003;60097;55.004;73.344;2022-07-23T05:57:05;4.13;2.92;
69736;PMS5003;60097;55.004;73.344;2022-07-23T05:59:37;4.38;2.92;
69736;PMS5003;60097;55.004;73.344;2022-07-23T06:02:09;2.80;2.60;
69736;PMS5003;60097;55.004;73.344;2022-07-23T06:04:36;3.58;2.63;
69736;PMS5003;60097;55.004;73.344;2022-07-23T06:07:14;6.95;3.33;
69736;PMS5003;60097;55.004;73.344;2022-07-23T06:09:47;5.72;2.67;
69736;PMS5003;60097;55.004;73.344;2022-07-23T06:12:15;14.15;3.80;
69736;PMS5003;60097;55.004;73.344;2022-07-23T06:14:42;8.70;3.57;
69736;PMS5003;60097;55.004;73.344;2022-07-23T06:17:14;4.65;3.00;
69736;PMS5003;60097;55.004;73.344;2022-07-23T06:19:44;7.57;2.90;
69736;PMS5003;60097;55.004;73.344;2022-07-23T06:22:10;3.88;3.08;
69736;PMS5003;60097;55.004;73.344;2022-07-23T06:24:37;3.67;3.33;
69736;PMS5003;60097;55.004;73.344;2022-07-23T06:27:04;22.13;3.10;
69736;PMS5003;60097;55.004;73.344;2022-07-23T06:29:30;11.40;3.00;
69736;PMS5003;60097;55.004;73.344;2022-07-23T06:32:07;7.18;3.20;
69736;PMS5003;60097;55.004;73.344;2022-07-23T06:34:33;13.00;3.00;
69736;PMS5003;60097;55.004;73.344;2022-07-23T06:37:00;12.23;3.13;
69736;PMS5003;60097;55.004;73.344;2022-07-23T06:39:27;6.85;3.33;
69736;PMS5003;60097;55.004;73.344;2022-07-23T06:41:54;11.65;3.40;
69736;PMS5003;60097;55.004;73.344;2022-07-23T06:44:34;10.73;3.30;
69736;PMS5003;60097;55.004;73.344;2022-07-23T06:47:01;6.43;3.80;
69736;PMS5003;60097;55.004;73.344;2022-07-23T06:49:27;8.76;3.72;
69736;PMS5003;60097;55.004;73.344;2022-07-23T06:51:57;15.23;4.18;
69736;PMS5003;60097;55.004;73.344;2022-07-23T06:54:25;19.83;5.28;
69736;PMS5003;60097;55.004;73.344;2022-07-23T06:56:52;3.97;3.28;
69736;PMS5003;60097;55.004;73.344;2022-07-23T06:59:27;6.25;3.22;
69736;PMS5003;60097;55.004;73.344;2022-07-23T07:01:58;7.68;3.70;
69736;PMS5003;60097;55.004;73.344;2022-07-23T07:04:25;4.45;3.60;
69736;PMS5003;60097;55.004;73.344;2022-07-23T07:06:51;2.92;2.72;
69736;PMS5003;60097;55.004;73.344;2022-07-23T07:12:24;7.60;2.70;
69736;PMS5003;60097;55.004;73.344;2022-07-23T07:14:51;5.28;3.00;
69736;PMS5003;60097;55.004;73.344;2022-07-23T07:17:23;6.60;2.88;
69736;PMS5003;60097;55.004;73.344;2022-07-23T07:19:49;8.73;2.80;
69736;PMS5003;60097;55.004;73.344;2022-07-23T07:22:16;5.13;3.05;
69736;PMS5003;60097;55.004;73.344;2022-07-23T07:24:42;4.05;2.97;
69736;PMS5003;60097;55.004;73.344;2022-07-23T07:27:09;2.97;2.65;
69736;PMS5003;60097;55.004;73.344;2022-07-23T07:29:35;8.80;3.25;
69736;PMS5003;60097;55.004;73.344;2022-07-23T07:32:02;7.75;3.58;
69736;PMS5003;60097;55.004;73.344;2022-07-23T07:34:28;8.87;3.25;
69736;PMS5003;60097;55.004;73.344;2022-07-23T07:36:59;12.60;3.70;
69736;PMS5003;60097;55.004;73.344;2022-07-23T07:39:25;13.82;3.95;
69736;PMS5003;60097;55.004;73.344;2022-07-23T07:41:52;11.55;3.38;
69736;PMS5003;60097;55.004;73.344;2022-07-23T07:47:23;6.63;3.10;
69736;PMS5003;60097;55.004;73.344;2022-07-23T07:49:53;4.75;2.83;
69736;PMS5003;60097;55.004;73.344;2022-07-23T07:52:19;20.15;3.97;
69736;PMS5003;60097;55.004;73.344;2022-07-23T07:54:46;8.18;3.25;
69736;PMS5003;60097;55.004;73.344;2022-07-23T07:57:12;4.00;3.17;
69736;PMS5003;60097;55.004;73.344;2022-07-23T07:59:48;5.53;3.20;
69736;PMS5003;60097;55.004;73.344;2022-07-23T08:02:14;4.43;3.15;
69736;PMS5003;60097;55.004;73.344;2022-07-23T08:04:45;10.38;3.88;
69736;PMS5003;60097;55.004;73.344;2022-07-23T08:07:12;7.75;3.72;
69736;PMS5003;60097;55.004;73.344;2022-07-23T08:12:11;15.60;4.60;
69736;PMS5003;60097;55.004;73.344;2022-07-23T08:14:37;6.05;3.78;
69736;PMS5003;60097;55.004;73.344;2022-07-23T08:17:04;12.00;4.40;
69736;PMS5003;60097;55.004;73.344;2022-07-23T08:19:33;20.85;5.00;
69736;PMS5003;60097;55.004;73.344;2022-07-23T08:22:04;19.40;5.43;
69736;PMS5003;60097;55.004;73.344;2022-07-23T08:24:31;23.73;5.23;
69736;PMS5003;60097;55.004;73.344;2022-07-23T08:26:57;17.52;5.47;
69736;PMS5003;60097;55.004;73.344;2022-07-23T08:29:25;12.77;4.55;
69736;PMS5003;60097;55.004;73.344;2022-07-23T08:31:51;13.27;5.55;
69736;PMS5003;60097;55.004;73.344;2022-07-23T08:34:28;28.10;6.27;
69736;PMS5003;60097;55.004;73.344;2022-07-23T08:36:59;19.48;5.25;
69736;PMS5003;60097;55.004;73.344;2022-07-23T08:41:58;17.55;5.70;
69736;PMS5003;60097;55.004;73.344;2022-07-23T08:44:25;27.27;6.18;
69736;PMS5003;60097;55.004;73.344;2022-07-23T08:46:51;16.42;4.72;
69736;PMS5003;60097;55.004;73.344;2022-07-23T08:49:25;14.02;4.68;
69736;PMS5003;60097;55.004;73.344;2022-07-23T08:51:55;14.82;5.18;
69736;PMS5003;60097;55.004;73.344;2022-07-23T08:54:28;21.15;5.18;
69736;PMS5003;60097;55.004;73.344;2022-07-23T08:56:54;11.45;5.10;
69736;PMS5003;60097;55.004;73.344;2022-07-23T08:59:25;19.42;4.70;
69736;PMS5003;60097;55.004;73.344;2022-07-23T09:01:54;17.23;4.60;
69736;PMS5003;60097;55.004;73.344;2022-07-23T09:04:25;8.57;4.30;
69736;PMS5003;60097;55.004;73.344;2022-07-23T09:06:56;15.73;4.05;
69736;PMS5003;60097;55.004;73.344;2022-07-23T09:09:25;30.13;5.60;
69736;PMS5003;60097;55.004;73.344;2022-07-23T09:12:03;12.65;4.63;
69736;PMS5003;60097;55.004;73.344;2022-07-23T09:14:43;20.92;5.13;
69736;PMS5003;60097;55.004;73.344;2022-07-23T09:17:22;30.25;5.57;
69736;PMS5003;60097;55.004;73.344;2022-07-23T09:19:49;15.95;5.45;
69736;PMS5003;60097;55.004;73.344;2022-07-23T09:22:16;26.65;4.88;
69736;PMS5003;60097;55.004;73.344;2022-07-23T09:28:13;18.80;4.68;
69736;PMS5003;60097;55.004;73.344;2022-07-23T09:30:33;15.02;4.18;
69736;PMS5003;60097;55.004;73.344;2022-07-23T09:33:06;79.53;10.23;
69736;PMS5003;60097;55.004;73.344;2022-07-23T09:35:48;83.80;16.65;
69736;PMS5003;60097;55.004;73.344;2022-07-23T09:38:22;24.23;7.72;
69736;PMS5003;60097;55.004;73.344;2022-07-23T09:41:07;21.15;5.70;
69736;PMS5003;60097;55.004;73.344;2022-07-23T09:43:43;10.55;4.70;
69736;PMS5003;60097;55.004;73.344;2022-07-23T09:46:17;12.20;4.60;
69736;PMS5003;60097;55.004;73.344;2022-07-23T09:48:50;13.15;4.90;
69736;PMS5003;60097;55.004;73.344;2022-07-23T09:54:02;15.25;4.57;
69736;PMS5003;60097;55.004;73.344;2022-07-23T09:56:28;12.75;4.63;
69736;PMS5003;60097;55.004;73.344;2022-07-23T09:58:59;11.00;4.30;
69736;PMS5003;60097;55.004;73.344;2022-07-23T10:01:45;9.00;3.90;
69736;PMS5003;60097;55.004;73.344;2022-07-23T10:04:12;5.93;3.85;
69736;PMS5003;60097;55.004;73.344;2022-07-23T10:07:40;11.35;4.20;
69736;PMS5003;60097;55.004;73.344;2022-07-23T10:10:26;12.23;3.72;
69736;PMS5003;60097;55.004;73.344;2022-07-23T10:13:31;8.23;3.72;
69736;PMS5003;60097;55.004;73.344;2022-07-23T10:16:22;6.07;3.73;
69736;PMS5003;60097;55.004;73.344;2022-07-23T10:18:51;5.80;3.50;
69736;PMS5003;60097;55.004;73.344;2022-07-23T10:21:51;8.48;3.50;
69736;PMS5003;60097;55.004;73.344;2022-07-23T10:30:04;9.17;3.17;
69736;PMS5003;60097;55.004;73.344;2022-07-23T10:33:05;10.00;2.83;
69736;PMS5003;60097;55.004;73.344;2022-07-23T10:35:38;12.83;3.67;
69736;PMS5003;60097;55.004;73.344;2022-07-23T10:40:54;8.13;3.22;
69736;PMS5003;60097;55.004;73.344;2022-07-23T10:43:22;3.40;3.10;
69736;PMS5003;60097;55.004;73.344;2022-07-23T10:45:48;8.80;3.65;
69736;PMS5003;60097;55.004;73.344;2022-07-23T10:48:25;11.27;3.35;
69736;PMS5003;60097;55.004;73.344;2022-07-23T10:54:05;8.20;3.35;
69736;PMS5003;60097;55.004;73.344;2022-07-23T10:59:31;13.47;3.57;
69736;PMS5003;60097;55.004;73.344;2022-07-23T11:04:50;11.10;4.90;
69736;PMS5003;60097;55.004;73.344;2022-07-23T11:07:33;10.93;3.65;
69736;PMS5003;60097;55.004;73.344;2022-07-23T11:10:01;6.70;3.47;
69736;PMS5003;60097;55.004;73.344;2022-07-23T11:15:06;33.95;4.38;
69736;PMS5003;60097;55.004;73.344;2022-07-23T11:17:39;26.48;4.25;
69736;PMS5003;60097;55.004;73.344;2022-07-23T11:20:52;28.85;4.30;
69736;PMS5003;60097;55.004;73.344;2022-07-23T11:24:12;28.17;4.72;
69736;PMS5003;60097;55.004;73.344;2022-07-23T11:31:51;16.95;3.35;
69736;PMS5003;60097;55.004;73.344;2022-07-23T11:37:04;11.70;4.35;
69736;PMS5003;60097;55.004;73.344;2022-07-23T11:39:32;17.90;3.80;
69736;PMS5003;60097;55.004;73.344;2022-07-23T11:41:59;13.60;3.10;
69736;PMS5003;60097;55.004;73.344;2022-07-23T11:47:01;7.10;2.42;
69736;PMS5003;60097;55.004;73.344;2022-07-23T11:49:32;14.48;3.80;
69736;PMS5003;60097;55.004;73.344;2022-07-23T12:00:23;7.88;2.35;
69736;PMS5003;60097;55.004;73.344;2022-07-23T12:03:19;18.25;4.40;
69736;PMS5003;60097;55.004;73.344;2022-07-23T12:05:47;9.30;3.20;
69736;PMS5003;60097;55.004;73.344;2022-07-23T12:08:13;11.68;3.55;
69736;PMS5003;60097;55.004;73.344;2022-07-23T12:10:44;7.77;3.40;
69736;PMS5003;60097;55.004;73.344;2022-07-23T12:16:15;13.95;4.38;
69736;PMS5003;60097;55.004;73.344;2022-07-23T12:18:41;29.23;5.85;
69736;PMS5003;60097;55.004;73.344;2022-07-23T12:21:08;37.45;6.50;
69736;PMS5003;60097;55.004;73.344;2022-07-23T12:23:35;56.40;8.55;
69736;PMS5003;60097;55.004;73.344;2022-07-23T12:26:03;22.90;5.15;
69736;PMS5003;60097;55.004;73.344;2022-07-23T12:28:32;27.88;5.22;
69736;PMS5003;60097;55.004;73.344;2022-07-23T12:31:01;51.27;8.00;
69736;PMS5003;60097;55.004;73.344;2022-07-23T12:36:37;48.90;6.53;
69736;PMS5003;60097;55.004;73.344;2022-07-23T12:39:07;39.03;5.43;
69736;PMS5003;60097;55.004;73.344;2022-07-23T12:41:53;14.02;4.25;
69736;PMS5003;60097;55.004;73.344;2022-07-23T12:44:25;16.82;4.28;
69736;PMS5003;60097;55.004;73.344;2022-07-23T12:46:52;11.90;3.95;
69736;PMS5003;60097;55.004;73.344;2022-07-23T12:49:26;18.27;8.48;
69736;PMS5003;60097;55.004;73.344;2022-07-23T12:51:59;17.08;4.03;
69736;PMS5003;60097;55.004;73.344;2022-07-23T12:54:46;18.77;4.85;
69736;PMS5003;60097;55.004;73.344;2022-07-23T12:57:13;25.67;5.28;
69736;PMS5003;60097;55.004;73.344;2022-07-23T12:59:44;16.95;5.20;
69736;PMS5003;60097;55.004;73.344;2022-07-23T13:02:11;22.95;8.50;
69736;PMS5003;60097;55.004;73.344;2022-07-23T13:04:38;28.08;6.55;
69736;PMS5003;60097;55.004;73.344;2022-07-23T13:10:13;26.33;6.20;
69736;PMS5003;60097;55.004;73.344;2022-07-23T13:12:39;39.58;7.55;
69736;PMS5003;60097;55.004;73.344;2022-07-23T13:15:15;30.55;6.82;
69736;PMS5003;60097;55.004;73.344;2022-07-23T13:17:48;45.00;7.75;
69736;PMS5003;60097;55.004;73.344;2022-07-23T13:20:19;30.40;6.37;
69736;PMS5003;60097;55.004;73.344;2022-07-23T13:22:47;18.23;4.50;
69736;PMS5003;60097;55.004;73.344;2022-07-23T13:25:19;17.10;4.77;
69736;PMS5003;60097;55.004;73.344;2022-07-23T13:27:55;32.85;7.57;
69736;PMS5003;60097;55.004;73.344;2022-07-23T13:30:21;41.50;7.05;
69736;PMS5003;60097;55.004;73.344;2022-07-23T13:32:54;44.63;7.78;
69736;PMS5003;60097;55.004;73.344;2022-07-23T13:35:52;25.23;6.07;
69736;PMS5003;60097;55.004;73.344;2022-07-23T13:41:52;20.77;4.57;
69736;PMS5003;60097;55.004;73.344;2022-07-23T13:44:24;13.10;3.35;
69736;PMS5003;60097;55.004;73.344;2022-07-23T13:47:00;18.08;4.15;
69736;PMS5003;60097;55.004;73.344;2022-07-23T13:49:31;17.47;3.83;
69736;PMS5003;60097;55.004;73.344;2022-07-23T13:52:40;24.92;4.32;
69736;PMS5003;60097;55.004;73.344;2022-07-23T13:55:06;9.65;4.32;
69736;PMS5003;60097;55.004;73.344;2022-07-23T13:57:43;12.90;4.20;
69736;PMS5003;60097;55.004;73.344;2022-07-23T14:00:10;12.40;3.80;
69736;PMS5003;60097;55.004;73.344;2022-07-23T14:02:38;11.20;3.97;
69736;PMS5003;60097;55.004;73.344;2022-07-23T14:05:15;10.55;3.60;
69736;PMS5003;60097;55.004;73.344;2022-07-23T14:07:42;9.73;4.03;
69736;PMS5003;60097;55.004;73.344;2022-07-23T14:10:10;18.13;4.18;
69736;PMS5003;60097;55.004;73.344;2022-07-23T14:12:36;11.35;3.40;
69736;PMS5003;60097;55.004;73.344;2022-07-23T14:18:05;21.45;4.15;
69736;PMS5003;60097;55.004;73.344;2022-07-23T14:20:33;15.07;4.00;
69736;PMS5003;60097;55.004;73.344;2022-07-23T14:22:59;22.98;5.05;
69736;PMS5003;60097;55.004;73.344;2022-07-23T14:25:26;8.25;3.35;
69736;PMS5003;60097;55.004;73.344;2022-07-23T14:27:53;19.05;4.38;
69736;PMS5003;60097;55.004;73.344;2022-07-23T14:30:29;24.20;5.57;
69736;PMS5003;60097;55.004;73.344;2022-07-23T14:32:56;21.70;5.40;
69736;PMS5003;60097;55.004;73.344;2022-07-23T14:35:22;17.30;5.20;
69736;PMS5003;60097;55.004;73.344;2022-07-23T14:37:49;24.65;5.55;
69736;PMS5003;60097;55.004;73.344;2022-07-23T14:40:16;9.65;5.10;
69736;PMS5003;60097;55.004;73.344;2022-07-23T14:42:42;17.08;5.72;
69736;PMS5003;60097;55.004;73.344;2022-07-23T14:45:09;19.63;6.10;
69736;PMS5003;60097;55.004;73.344;2022-07-23T14:47:36;15.55;5.57;
69736;PMS5003;60097;55.004;73.344;2022-07-23T14:50:02;25.05;5.78;
69736;PMS5003;60097;55.004;73.344;2022-07-23T14:52:30;14.35;6.13;
69736;PMS5003;60097;55.004;73.344;2022-07-23T14:54:56;23.90;7.03;
69736;PMS5003;60097;55.004;73.344;2022-07-23T14:57:23;19.58;6.95;
69736;PMS5003;60097;55.004;73.344;2022-07-23T14:59:56;22.50;7.30;
69736;PMS5003;60097;55.004;73.344;2022-07-23T15:02:22;30.73;7.80;
69736;PMS5003;60097;55.004;73.344;2022-07-23T15:04:49;25.15;8.70;
69736;PMS5003;60097;55.004;73.344;2022-07-23T15:07:15;19.33;9.35;
69736;PMS5003;60097;55.004;73.344;2022-07-23T15:09:42;19.00;8.48;
69736;PMS5003;60097;55.004;73.344;2022-07-23T15:12:08;21.25;9.23;
69736;PMS5003;60097;55.004;73.344;2022-07-23T15:14:36;21.13;8.32;
69736;PMS5003;60097;55.004;73.344;2022-07-23T15:17:13;27.33;8.77;
69736;PMS5003;60097;55.004;73.344;2022-07-23T15:19:39;19.33;7.65;
69736;PMS5003;60097;55.004;73.344;2022-07-23T15:22:09;20.88;7.80;
69736;PMS5003;60097;55.004;73.344;2022-07-23T15:24:35;22.23;7.75;
69736;PMS5003;60097;55.004;73.344;2022-07-23T15:27:02;13.38;6.88;
69736;PMS5003;60097;55.004;73.344;2022-07-23T15:29:28;21.50;7.90;
69736;PMS5003;60097;55.004;73.344;2022-07-23T15:31:55;20.33;8.50;
69736;PMS5003;60097;55.004;73.344;2022-07-23T15:34:23;11.05;8.55;
69736;PMS5003;60097;55.004;73.344;2022-07-23T15:36:50;19.38;8.63;
69736;PMS5003;60097;55.004;73.344;2022-07-23T15:39:23;20.07;6.22;
69736;PMS5003;60097;55.004;73.344;2022-07-23T15:41:50;8.07;5.57;
69736;PMS5003;60097;55.004;73.344;2022-07-23T15:44:25;12.40;4.98;
69736;PMS5003;60097;55.004;73.344;2022-07-23T15:46:54;14.63;5.85;
69736;PMS5003;60097;55.004;73.344;2022-07-23T15:49:23;12.00;5.18;
69736;PMS5003;60097;55.004;73.344;2022-07-23T15:51:54;14.82;6.18;
69736;PMS5003;60097;55.004;73.344;2022-07-23T15:54:23;8.93;5.53;
69736;PMS5003;60097;55.004;73.344;2022-07-23T15:56:50;16.23;5.85;
69736;PMS5003;60097;55.004;73.344;2022-07-23T15:59:23;11.38;5.10;
69736;PMS5003;60097;55.004;73.344;2022-07-23T16:01:50;15.68;6.22;
69736;PMS5003;60097;55.004;73.344;2022-07-23T16:04:49;13.55;8.68;
69736;PMS5003;60097;55.004;73.344;2022-07-23T16:07:16;18.63;9.52;
69736;PMS5003;60097;55.004;73.344;2022-07-23T16:09:43;20.45;7.60;
69736;PMS5003;60097;55.004;73.344;2022-07-23T16:12:13;12.65;7.30;
69736;PMS5003;60097;55.004;73.344;2022-07-23T16:14:40;14.43;6.63;
69736;PMS5003;60097;55.004;73.344;2022-07-23T16:17:07;11.82;5.97;
69736;PMS5003;60097;55.004;73.344;2022-07-23T16:19:33;22.80;5.57;
69736;PMS5003;60097;55.004;73.344;2022-07-23T16:22:00;12.27;6.15;
69736;PMS5003;60097;55.004;73.344;2022-07-23T16:24:36;9.70;5.93;
69736;PMS5003;60097;55.004;73.344;2022-07-23T16:27:03;13.52;4.63;
69736;PMS5003;60097;55.004;73.344;2022-07-23T16:29:34;18.17;4.72;
69736;PMS5003;60097;55.004;73.344;2022-07-23T16:32:01;20.92;4.90;